createdAt,value
2018-07-20T00:01:32.286Z,6.80
2018-07-20T00:04:30.022Z,6.60
2018-07-20T00:07:28.025Z,7.50
2018-07-20T00:10:26.208Z,10.37
2018-07-20T00:13:24.182Z,6.83
2018-07-20T00:16:22.197Z,6.90
2018-07-20T00:19:20.319Z,8.17
2018-07-20T00:22:18.166Z,7.43
2018-07-20T00:25:16.166Z,8.00
2018-07-20T00:28:14.041Z,6.80
2018-07-20T00:31:12.255Z,7.43
2018-07-20T00:34:10.289Z,6.97
2018-07-20T00:37:08.290Z,7.07
2018-07-20T00:40:06.350Z,7.20
2018-07-20T00:43:04.402Z,7.77
2018-07-20T00:46:02.210Z,7.53
2018-07-20T00:49:00.214Z,6.83
2018-07-20T00:51:58.482Z,7.43
2018-07-20T00:54:56.326Z,7.80
2018-07-20T00:57:54.215Z,8.30
2018-07-20T01:00:53.478Z,8.10
2018-07-20T01:03:55.820Z,7.20
2018-07-20T01:06:53.490Z,7.47
2018-07-20T01:09:56.403Z,8.00
2018-07-20T01:12:55.560Z,6.80
2018-07-20T01:16:10.446Z,9.17
2018-07-20T01:19:17.734Z,8.27
2018-07-20T01:22:24.983Z,9.93
2018-07-20T01:25:23.995Z,8.70
2018-07-20T01:28:22.715Z,8.30
2018-07-20T01:31:20.206Z,7.67
2018-07-20T01:34:27.167Z,11.57
2018-07-20T01:37:24.682Z,8.57
2018-07-20T01:40:22.778Z,7.80
2018-07-20T01:43:19.950Z,8.00
2018-07-20T01:46:18.046Z,10.60
2018-07-20T01:49:16.089Z,8.33
2018-07-20T01:52:13.344Z,8.23
2018-07-20T01:55:11.310Z,8.13
2018-07-20T01:58:12.099Z,9.27
2018-07-20T02:01:09.630Z,8.40
2018-07-20T02:04:07.482Z,8.60
2018-07-20T02:07:05.442Z,9.40
2018-07-20T02:10:03.486Z,8.23
2018-07-20T02:13:01.510Z,8.07
2018-07-20T02:15:58.574Z,9.37
2018-07-20T02:18:56.058Z,7.93
2018-07-20T02:21:53.970Z,12.97
2018-07-20T02:24:52.065Z,9.40
2018-07-20T02:27:50.134Z,8.30
2018-07-20T02:30:48.226Z,9.33
2018-07-20T02:33:46.202Z,8.43
2018-07-20T02:36:43.728Z,8.30
2018-07-20T02:39:41.656Z,11.00
2018-07-20T02:42:39.815Z,7.27
2018-07-20T02:45:36.893Z,10.77
2018-07-20T02:48:34.881Z,9.63
2018-07-20T02:51:32.868Z,8.83
2018-07-20T02:54:30.986Z,9.80
2018-07-20T02:57:29.083Z,10.53
2018-07-20T03:00:27.042Z,8.40
2018-07-20T03:03:24.786Z,10.93
2018-07-20T03:06:21.978Z,9.37
2018-07-20T03:09:22.074Z,8.70
2018-07-20T03:12:20.295Z,10.13
2018-07-20T03:15:18.538Z,8.63
2018-07-20T03:18:16.432Z,9.57
2018-07-20T03:21:14.459Z,9.87
2018-07-20T03:24:12.519Z,10.33
2018-07-20T03:27:10.741Z,9.13
2018-07-20T03:30:07.951Z,9.87
2018-07-20T03:33:05.283Z,9.20
2018-07-20T03:36:03.254Z,10.00
2018-07-20T03:39:00.600Z,9.27
2018-07-20T03:41:58.666Z,8.63
2018-07-20T03:44:56.871Z,8.37
2018-07-20T03:47:54.733Z,9.03
2018-07-20T03:50:52.603Z,8.43
2018-07-20T03:53:50.479Z,10.50
2018-07-20T03:56:47.886Z,8.97
2018-07-20T03:59:45.853Z,9.00
2018-07-20T04:02:43.685Z,11.83
2018-07-20T04:05:41.570Z,8.87
2018-07-20T04:08:39.527Z,9.10
2018-07-20T04:11:37.604Z,9.17
2018-07-20T04:14:35.777Z,8.73
2018-07-20T04:17:37.846Z,9.33
2018-07-20T04:20:34.813Z,8.50
2018-07-20T04:23:31.806Z,12.63
2018-07-20T04:26:29.522Z,9.90
2018-07-20T04:29:27.124Z,10.37
2018-07-20T04:32:25.291Z,8.97
2018-07-20T04:35:23.337Z,7.77
2018-07-20T04:38:21.476Z,7.63
2018-07-20T04:41:18.890Z,8.20
2018-07-20T04:44:17.043Z,9.47
2018-07-20T04:47:14.554Z,8.23
2018-07-20T04:50:12.562Z,9.00
2018-07-20T04:53:10.572Z,8.33
2018-07-20T04:56:08.558Z,7.67
2018-07-20T04:59:06.697Z,8.40
2018-07-20T05:02:03.684Z,8.03
2018-07-20T05:05:01.570Z,8.50
2018-07-20T05:07:59.381Z,7.93
2018-07-20T05:10:56.642Z,7.17
2018-07-20T05:13:54.509Z,9.93
2018-07-20T05:16:52.724Z,7.63
2018-07-20T05:19:51.719Z,7.40
2018-07-20T05:22:49.606Z,7.90
2018-07-20T05:25:47.462Z,8.07
2018-07-20T05:28:44.964Z,7.83
2018-07-20T05:31:42.189Z,7.97
2018-07-20T05:34:39.283Z,7.37
2018-07-20T05:37:36.314Z,6.93
2018-07-20T05:40:34.490Z,6.80
2018-07-20T05:43:32.406Z,6.90
2018-07-20T05:46:29.593Z,6.73
2018-07-20T05:49:27.781Z,6.73
2018-07-20T05:52:25.116Z,6.97
2018-07-20T05:55:23.119Z,6.03
2018-07-20T05:58:21.402Z,6.57
2018-07-20T06:01:19.266Z,7.33
2018-07-20T06:04:17.499Z,6.90
2018-07-20T06:07:15.563Z,7.40
2018-07-20T06:10:13.479Z,9.10
2018-07-20T06:13:11.671Z,7.00
2018-07-20T06:16:09.646Z,7.57
2018-07-20T06:19:07.726Z,8.07
2018-07-20T06:22:05.977Z,7.47
2018-07-20T06:25:03.885Z,7.77
2018-07-20T06:28:01.981Z,6.30
2018-07-20T06:30:59.903Z,6.57
2018-07-20T06:33:57.986Z,7.00
2018-07-20T06:36:55.673Z,6.57
2018-07-20T06:39:53.571Z,6.33
2018-07-20T06:42:50.848Z,6.53
2018-07-20T06:45:48.860Z,6.60
2018-07-20T06:48:46.493Z,6.33
2018-07-20T06:51:44.380Z,6.40
2018-07-20T06:54:42.226Z,8.33
2018-07-20T06:57:40.191Z,6.73
2018-07-20T07:00:38.071Z,7.57
2018-07-20T07:03:35.189Z,8.40
2018-07-20T07:06:32.257Z,7.33
2018-07-20T07:09:30.463Z,8.43
2018-07-20T07:12:28.473Z,8.50
2018-07-20T07:15:26.466Z,6.47
2018-07-20T07:18:24.357Z,7.17
2018-07-20T07:21:22.570Z,7.27
2018-07-20T07:24:20.514Z,7.40
2018-07-20T07:27:18.275Z,7.00
2018-07-20T07:30:15.578Z,8.10
2018-07-20T07:33:13.774Z,8.47
2018-07-20T07:36:11.787Z,9.10
2018-07-20T07:39:09.980Z,9.97
2018-07-20T07:42:08.089Z,8.07
2018-07-20T07:45:06.014Z,7.60
2018-07-20T07:48:04.171Z,8.93
2018-07-20T07:51:02.061Z,8.07
2018-07-20T07:53:59.907Z,6.15
2018-07-20T07:56:57.407Z,9.35
2018-07-20T07:59:55.421Z,12.03
2018-07-20T08:02:53.308Z,9.60
2018-07-20T08:05:51.351Z,6.90
2018-07-20T08:08:48.674Z,8.88
2018-07-20T08:11:47.698Z,5.60
2018-07-20T08:14:45.642Z,7.12
2018-07-20T08:17:42.847Z,6.83
2018-07-20T08:20:40.142Z,9.98
2018-07-20T08:23:37.540Z,6.17
2018-07-20T08:26:34.886Z,7.12
2018-07-20T08:29:32.965Z,6.85
2018-07-20T08:32:31.095Z,8.10
2018-07-20T08:35:28.675Z,6.37
2018-07-20T08:38:25.837Z,8.45
2018-07-20T08:41:23.797Z,9.50
2018-07-20T08:44:21.095Z,8.63
2018-07-20T08:47:19.309Z,5.90
2018-07-20T08:50:17.427Z,5.35
2018-07-20T08:53:15.274Z,5.25
2018-07-20T08:56:13.298Z,7.28
2018-07-20T08:59:11.539Z,7.12
2018-07-20T09:02:09.468Z,4.33
2018-07-20T09:05:07.507Z,4.72
2018-07-20T09:08:05.534Z,6.55
2018-07-20T09:11:02.847Z,5.08
2018-07-20T09:14:00.998Z,4.72
2018-07-20T09:16:57.987Z,4.55
2018-07-20T09:19:56.338Z,7.80
2018-07-20T09:22:54.027Z,6.83
2018-07-20T09:25:51.898Z,4.17
2018-07-20T09:28:49.907Z,4.40
2018-07-20T09:31:47.055Z,4.70
2018-07-20T09:34:45.332Z,7.25
2018-07-20T09:37:43.335Z,8.25
2018-07-20T09:40:41.389Z,4.37
2018-07-20T09:43:38.557Z,4.03
2018-07-20T09:46:36.586Z,5.40
2018-07-20T09:49:34.279Z,6.03
2018-07-20T09:52:31.712Z,4.62
2018-07-20T09:55:29.729Z,4.20
2018-07-20T09:58:27.601Z,4.60
2018-07-20T10:01:25.335Z,4.92
2018-07-20T10:04:23.598Z,4.97
2018-07-20T10:07:21.588Z,4.58
2018-07-20T10:10:19.695Z,4.72
2018-07-20T10:13:17.657Z,4.42
2018-07-20T10:16:15.735Z,4.92
2018-07-20T10:19:13.046Z,5.75
2018-07-20T10:22:10.939Z,5.62
2018-07-20T10:25:08.929Z,5.65
2018-07-20T10:28:06.812Z,6.08
2018-07-20T10:31:04.994Z,4.25
2018-07-20T10:34:02.435Z,4.72
2018-07-20T10:37:00.332Z,4.05
2018-07-20T10:39:57.806Z,4.67
2018-07-20T10:42:55.958Z,7.15
2018-07-20T10:45:53.102Z,4.70
2018-07-20T10:48:51.278Z,6.97
2018-07-20T10:51:48.637Z,5.22
2018-07-20T10:54:46.725Z,5.37
2018-07-20T10:57:44.598Z,6.42
2018-07-20T11:00:42.881Z,5.20
2018-07-20T11:03:40.127Z,7.40
2018-07-20T11:06:38.160Z,6.22
2018-07-20T11:09:35.259Z,4.85
2018-07-20T11:12:33.451Z,5.75
2018-07-20T11:15:31.407Z,6.08
2018-07-20T11:18:29.621Z,4.95
2018-07-20T11:21:27.666Z,7.70
2018-07-20T11:24:25.879Z,10.93
2018-07-20T11:27:23.828Z,6.25
2018-07-20T11:30:21.939Z,7.67
2018-07-20T11:33:20.096Z,5.80
2018-07-20T11:36:18.395Z,8.08
2018-07-20T11:39:16.606Z,5.62
2018-07-20T11:42:14.695Z,6.62
2018-07-20T11:45:13.911Z,6.03
2018-07-20T11:48:11.681Z,8.55
2018-07-20T11:51:09.669Z,7.30
2018-07-20T11:54:06.822Z,11.48
2018-07-20T11:57:04.680Z,6.08
2018-07-20T12:00:02.692Z,5.45
2018-07-20T12:03:00.828Z,6.80
2018-07-20T12:05:58.817Z,7.33
2018-07-20T12:08:55.970Z,6.20
2018-07-20T12:11:54.004Z,5.77
2018-07-20T12:14:51.342Z,6.23
2018-07-20T12:17:49.288Z,7.37
2018-07-20T12:20:47.452Z,6.43
2018-07-20T12:23:45.564Z,5.00
2018-07-20T12:26:43.476Z,9.63
2018-07-20T12:29:41.512Z,5.57
2018-07-20T12:32:39.669Z,5.07
2018-07-20T12:35:36.692Z,6.13
2018-07-20T12:38:34.697Z,5.07
2018-07-20T12:41:32.549Z,5.47
2018-07-20T12:44:30.414Z,6.13
2018-07-20T12:47:28.298Z,5.63
2018-07-20T12:50:26.542Z,8.10
2018-07-20T12:53:25.629Z,6.70
2018-07-20T12:56:23.498Z,4.70
2018-07-20T12:59:21.524Z,5.53
2018-07-20T13:02:19.602Z,7.00
2018-07-20T13:05:17.642Z,4.60
2018-07-20T13:08:15.763Z,4.50
2018-07-20T13:11:14.027Z,5.00
2018-07-20T13:14:12.023Z,5.53
2018-07-20T13:17:10.183Z,4.73
2018-07-20T13:20:08.135Z,5.47
2018-07-20T13:23:06.467Z,8.70
2018-07-20T13:26:04.947Z,4.97
2018-07-20T13:29:02.475Z,4.13
2018-07-20T13:32:00.386Z,4.25
2018-07-20T13:34:58.645Z,5.80
2018-07-20T13:37:56.114Z,4.30
2018-07-20T13:41:02.914Z,4.50
2018-07-20T13:44:00.863Z,4.60
2018-07-20T13:46:59.142Z,5.10
2018-07-20T13:49:57.333Z,5.22
2018-07-20T13:52:55.147Z,5.00
2018-07-20T13:55:53.167Z,6.80
2018-07-20T13:58:51.214Z,5.03
2018-07-20T14:01:49.332Z,4.27
2018-07-20T14:04:47.410Z,5.93
2018-07-20T14:07:45.371Z,5.83
2018-07-20T14:10:43.368Z,5.30
2018-07-20T14:13:41.316Z,5.13
2018-07-20T14:16:39.494Z,4.93
2018-07-20T14:19:37.254Z,7.60
2018-07-20T14:22:35.150Z,4.97
2018-07-20T14:25:33.011Z,5.20
2018-07-20T14:28:31.267Z,5.53
2018-07-20T14:31:28.571Z,5.43
2018-07-20T14:34:26.667Z,8.75
2018-07-20T14:37:24.695Z,4.92
2018-07-20T14:40:21.678Z,5.80
2018-07-20T14:43:19.807Z,5.45
2018-07-20T14:46:17.974Z,4.83
2018-07-20T14:49:15.902Z,4.85
2018-07-20T14:52:13.986Z,4.70
2018-07-20T14:55:11.542Z,6.60
2018-07-20T14:58:09.622Z,4.65
2018-07-20T15:01:07.599Z,4.55
2018-07-20T15:04:05.265Z,6.83
2018-07-20T15:07:03.170Z,5.80
2018-07-20T15:10:01.152Z,6.13
2018-07-20T15:12:59.252Z,6.37
2018-07-20T15:15:57.180Z,5.53
2018-07-20T15:18:55.267Z,7.47
2018-07-20T15:21:53.221Z,4.73
2018-07-20T15:24:51.095Z,5.07
2018-07-20T15:27:49.111Z,4.97
2018-07-20T15:30:47.130Z,5.33
2018-07-20T15:33:45.050Z,5.37
2018-07-20T15:36:42.075Z,5.10
2018-07-20T15:39:39.958Z,5.13
2018-07-20T15:42:37.998Z,5.07
2018-07-20T15:45:36.082Z,5.10
2018-07-20T15:48:34.047Z,5.23
2018-07-20T15:53:34.771Z,6.23
2018-07-20T15:54:30.036Z,5.43
2018-07-20T15:57:27.806Z,5.20
2018-07-20T16:00:25.735Z,5.10
2018-07-20T16:03:23.559Z,6.13
2018-07-20T16:06:21.404Z,5.97
2018-07-20T16:09:21.233Z,7.60
2018-07-20T16:12:19.112Z,5.00
2018-07-20T16:15:17.109Z,9.10
2018-07-20T16:18:15.051Z,5.07
2018-07-20T16:21:13.214Z,12.13
2018-07-20T16:24:11.188Z,5.47
2018-07-20T16:27:09.079Z,5.40
2018-07-20T16:30:07.164Z,5.08
2018-07-20T16:33:05.125Z,5.42
2018-07-20T16:36:03.243Z,5.37
2018-07-20T16:39:01.177Z,5.93
2018-07-20T16:41:58.983Z,6.17
2018-07-20T16:44:57.898Z,5.37
2018-07-20T16:47:55.894Z,5.43
2018-07-20T16:50:53.647Z,6.33
2018-07-20T16:53:51.851Z,5.10
2018-07-20T16:56:50.101Z,6.57
2018-07-20T16:59:48.222Z,5.10
2018-07-20T17:02:46.278Z,5.20
2018-07-20T17:05:44.022Z,6.60
2018-07-20T17:08:42.226Z,5.00
2018-07-20T17:11:40.285Z,4.90
2018-07-20T17:14:38.559Z,5.93
2018-07-20T17:17:36.424Z,6.33
2018-07-20T17:20:34.118Z,8.23
2018-07-20T17:23:31.851Z,6.07
2018-07-20T17:26:29.779Z,7.20
2018-07-20T17:29:27.718Z,6.03
2018-07-20T17:32:25.823Z,5.57
2018-07-20T17:35:23.598Z,7.07
2018-07-20T17:38:21.643Z,6.53
2018-07-20T17:41:19.514Z,5.53
2018-07-20T17:44:18.465Z,5.60
2018-07-20T17:47:16.286Z,5.93
2018-07-20T17:50:14.062Z,5.20
2018-07-20T17:53:12.034Z,6.77
2018-07-20T17:56:10.009Z,6.83
2018-07-20T17:59:07.985Z,6.93
2018-07-20T18:02:05.914Z,5.97
2018-07-20T18:05:04.014Z,5.27
2018-07-20T18:08:02.036Z,6.17
2018-07-20T18:10:59.934Z,6.03
2018-07-20T18:13:57.693Z,6.67
2018-07-20T18:16:55.755Z,6.03
2018-07-20T18:19:53.409Z,6.60
2018-07-20T18:22:51.413Z,7.47
2018-07-20T18:25:49.323Z,7.50
2018-07-20T18:28:46.312Z,12.17
2018-07-20T18:31:44.183Z,8.93
2018-07-20T18:34:42.230Z,8.13
2018-07-20T18:37:40.265Z,7.83
2018-07-20T18:40:38.377Z,7.53
2018-07-20T18:43:36.370Z,7.47
2018-07-20T18:46:34.266Z,9.67
2018-07-20T18:49:32.278Z,7.47
2018-07-20T18:52:30.210Z,10.87
2018-07-20T18:55:28.187Z,11.40
2018-07-20T18:58:26.146Z,9.53
2018-07-20T19:01:24.233Z,9.10
2018-07-20T19:04:22.283Z,9.27
2018-07-20T19:07:20.266Z,8.80
2018-07-20T19:10:18.342Z,8.57
2018-07-20T19:13:16.328Z,11.67
2018-07-20T19:16:14.574Z,12.40
2018-07-20T19:19:12.812Z,8.23
2018-07-20T19:22:10.890Z,10.07
2018-07-20T19:25:08.906Z,16.13
2018-07-20T19:28:06.890Z,14.33
2018-07-20T19:31:04.666Z,12.07
2018-07-20T19:34:02.628Z,26.87
2018-07-20T19:37:00.606Z,18.13
2018-07-20T19:39:58.558Z,15.43
2018-07-20T19:42:56.412Z,10.87
2018-07-20T19:45:54.245Z,12.83
2018-07-20T19:48:52.347Z,10.93
2018-07-20T19:51:50.260Z,10.87
2018-07-20T19:54:48.170Z,11.23
2018-07-20T19:57:46.001Z,17.80
2018-07-20T20:00:44.027Z,20.40
2018-07-20T20:03:42.075Z,12.70
2018-07-20T20:06:40.281Z,11.70
2018-07-20T20:09:38.358Z,22.03
2018-07-20T20:12:36.430Z,16.17
2018-07-20T20:15:33.758Z,10.00
2018-07-20T20:18:31.692Z,10.13
2018-07-20T20:21:29.938Z,10.93
2018-07-20T20:24:27.920Z,9.33
2018-07-20T20:27:25.814Z,10.40
2018-07-20T20:30:23.925Z,11.77
2018-07-20T20:33:22.847Z,10.77
2018-07-20T20:36:20.574Z,18.63
2018-07-20T20:39:19.595Z,18.53
2018-07-20T20:42:17.471Z,21.07
2018-07-20T20:45:16.474Z,9.87
2018-07-20T20:48:14.448Z,11.10
2018-07-20T20:51:12.523Z,14.33
2018-07-20T20:54:10.320Z,10.37
2018-07-20T20:57:08.319Z,11.37
2018-07-20T21:00:06.361Z,11.10
2018-07-20T21:03:04.344Z,10.43
2018-07-20T21:06:02.304Z,12.77
2018-07-20T21:09:00.283Z,9.73
2018-07-20T21:11:58.208Z,10.30
2018-07-20T21:14:56.447Z,13.27
2018-07-20T21:17:54.335Z,15.60
2018-07-20T21:20:52.323Z,13.73
2018-07-20T21:23:50.296Z,10.27
2018-07-20T21:26:48.310Z,18.87
2018-07-20T21:29:46.588Z,10.73
2018-07-20T21:32:44.519Z,11.03
2018-07-20T21:35:42.730Z,13.10
2018-07-20T21:38:40.607Z,11.53
2018-07-20T21:41:37.952Z,10.10
2018-07-20T21:44:35.944Z,9.97
2018-07-20T21:47:33.940Z,12.37
2018-07-20T21:50:32.202Z,11.23
2018-07-20T21:53:29.975Z,12.20
2018-07-20T21:56:27.837Z,12.60
2018-07-20T21:59:25.914Z,10.33
2018-07-20T22:02:22.931Z,14.40
2018-07-20T22:05:20.844Z,11.47
2018-07-20T22:08:18.756Z,10.70
2018-07-20T22:11:16.382Z,13.73
2018-07-20T22:14:13.962Z,17.40
2018-07-20T22:17:11.862Z,10.33
2018-07-20T22:20:09.837Z,14.70
2018-07-20T22:23:07.455Z,10.53
2018-07-20T22:26:05.381Z,11.57
2018-07-20T22:29:03.507Z,11.60
2018-07-20T22:32:01.617Z,14.33
2018-07-20T22:34:59.463Z,11.50
2018-07-20T22:37:57.670Z,13.60
2018-07-20T22:40:55.454Z,13.13
2018-07-20T22:43:53.302Z,12.90
2018-07-20T22:46:51.199Z,11.87
2018-07-20T22:49:49.252Z,12.13
2018-07-20T22:52:47.014Z,11.27
2018-07-20T22:55:44.938Z,10.97
2018-07-20T22:58:42.762Z,13.50
2018-07-20T23:01:40.618Z,12.00
2018-07-20T23:04:38.695Z,12.77
2018-07-20T23:07:36.566Z,14.77
2018-07-20T23:10:34.765Z,13.17
2018-07-20T23:13:32.861Z,11.60
2018-07-20T23:16:30.619Z,13.43
2018-07-20T23:19:28.491Z,12.13
2018-07-20T23:22:26.256Z,13.70
2018-07-20T23:25:23.974Z,14.30
2018-07-20T23:28:21.913Z,11.90
2018-07-20T23:31:19.849Z,13.17
2018-07-20T23:34:17.622Z,12.40
2018-07-20T23:37:15.721Z,12.83
2018-07-20T23:40:13.117Z,14.53
2018-07-20T23:43:11.059Z,12.67
2018-07-20T23:46:08.769Z,13.20
2018-07-20T23:49:05.911Z,11.60
2018-07-20T23:52:03.818Z,11.67
2018-07-20T23:55:01.655Z,11.80
2018-07-20T23:57:59.694Z,10.57
